sensor_id;sensor_type;location;lat;lon;timestamp;pressure;altitude;pressure_sealevel;temperature;humidity
51452;BME280;37521;52.020;-1.740;2023-01-26T00:01:45;101355.69;;;0.96;100.00
51452;BME280;37521;52.020;-1.740;2023-01-26T00:04:13;101357.31;;;0.88;100.00
51452;BME280;37521;52.020;-1.740;2023-01-26T00:06:41;101354.59;;;0.80;100.00
51452;BME280;37521;52.020;-1.740;2023-01-26T00:09:12;101342.31;;;0.72;100.00
51452;BME280;37521;52.020;-1.740;2023-01-26T00:11:41;101350.94;;;0.69;100.00
51452;BME280;37521;52.020;-1.740;2023-01-26T00:14:09;101352.59;;;0.64;100.00
51452;BME280;37521;52.020;-1.740;2023-01-26T00:16:38;101345.44;;;0.49;100.00
51452;BME280;37521;52.020;-1.740;2023-01-26T00:19:07;101353.88;;;0.35;100.00
51452;BME280;37521;52.020;-1.740;2023-01-26T00:21:35;101349.38;;;0.26;100.00
51452;BME280;37521;52.020;-1.740;2023-01-26T00:24:04;101350.06;;;0.14;100.00
51452;BME280;37521;52.020;-1.740;2023-01-26T00:26:32;101355.03;;;0.02;100.00
51452;BME280;37521;52.020;-1.740;2023-01-26T00:29:01;101353.97;;;-0.08;100.00
51452;BME280;37521;52.020;-1.740;2023-01-26T00:31:29;101353.03;;;-0.13;100.00
51452;BME280;37521;52.020;-1.740;2023-01-26T00:33:58;101357.41;;;-0.09;100.00
51452;BME280;37521;52.020;-1.740;2023-01-26T00:36:28;101351.41;;;-0.06;100.00
51452;BME280;37521;52.020;-1.740;2023-01-26T00:38:56;101346.25;;;-0.03;100.00
51452;BME280;37521;52.020;-1.740;2023-01-26T00:41:24;101345.34;;;-0.07;100.00
51452;BME280;37521;52.020;-1.740;2023-01-26T00:44:09;101347.03;;;-0.09;100.00
51452;BME280;37521;52.020;-1.740;2023-01-26T00:46:37;101347.03;;;-0.09;100.00
51452;BME280;37521;52.020;-1.740;2023-01-26T00:49:05;101341.06;;;-0.05;100.00
51452;BME280;37521;52.020;-1.740;2023-01-26T00:51:35;101345.53;;;0.06;100.00
51452;BME280;37521;52.020;-1.740;2023-01-26T00:54:03;101350.81;;;0.09;100.00
51452;BME280;37521;52.020;-1.740;2023-01-26T00:56:31;101352.47;;;0.07;100.00
51452;BME280;37521;52.020;-1.740;2023-01-26T00:59:00;101357.69;;;0.07;100.00
51452;BME280;37521;52.020;-1.740;2023-01-26T01:01:28;101366.41;;;0.09;100.00
51452;BME280;37521;52.020;-1.740;2023-01-26T01:03:56;101365.47;;;0.07;100.00
51452;BME280;37521;52.020;-1.740;2023-01-26T01:06:25;101360.03;;;-0.07;100.00
51452;BME280;37521;52.020;-1.740;2023-01-26T01:08:55;101359.75;;;-0.21;100.00
51452;BME280;37521;52.020;-1.740;2023-01-26T01:11:23;101367.50;;;-0.24;100.00
51452;BME280;37521;52.020;-1.740;2023-01-26T01:13:51;101360.56;;;-0.25;100.00
51452;BME280;37521;52.020;-1.740;2023-01-26T01:16:19;101361.34;;;-0.29;100.00
51452;BME280;37521;52.020;-1.740;2023-01-26T01:18:51;101363.81;;;-0.35;100.00
51452;BME280;37521;52.020;-1.740;2023-01-26T01:21:21;101370.56;;;-0.45;100.00
51452;BME280;37521;52.020;-1.740;2023-01-26T01:23:51;101361.66;;;-0.58;100.00
51452;BME280;37521;52.020;-1.740;2023-01-26T01:26:21;101359.09;;;-0.55;100.00
51452;BME280;37521;52.020;-1.740;2023-01-26T01:28:52;101354.84;;;-0.52;100.00
51452;BME280;37521;52.020;-1.740;2023-01-26T01:31:22;101349.78;;;-0.46;100.00
51452;BME280;37521;52.020;-1.740;2023-01-26T01:33:51;101348.13;;;-0.41;100.00
51452;BME280;37521;52.020;-1.740;2023-01-26T01:36:20;101355.13;;;-0.39;100.00
51452;BME280;37521;52.020;-1.740;2023-01-26T01:38:50;101348.25;;;-0.35;100.00
51452;BME280;37521;52.020;-1.740;2023-01-26T01:41:21;101350.00;;;-0.34;100.00
51452;BME280;37521;52.020;-1.740;2023-01-26T01:43:51;101355.25;;;-0.33;100.00
51452;BME280;37521;52.020;-1.740;2023-01-26T01:46:25;101349.19;;;-0.33;100.00
51452;BME280;37521;52.020;-1.740;2023-01-26T01:48:57;101358.63;;;-0.35;100.00
51452;BME280;37521;52.020;-1.740;2023-01-26T01:51:30;101361.25;;;-0.34;100.00
51452;BME280;37521;52.020;-1.740;2023-01-26T01:54:03;101360.56;;;-0.25;100.00
51452;BME280;37521;52.020;-1.740;2023-01-26T01:56:36;101358.81;;;-0.26;100.00
51452;BME280;37521;52.020;-1.740;2023-01-26T01:59:08;101361.22;;;-0.35;100.00
51452;BME280;37521;52.020;-1.740;2023-01-26T02:01:37;101353.31;;;-0.41;100.00
51452;BME280;37521;52.020;-1.740;2023-01-26T02:04:06;101359.31;;;-0.45;100.00
51452;BME280;37521;52.020;-1.740;2023-01-26T02:06:41;101358.50;;;-0.41;100.00
51452;BME280;37521;52.020;-1.740;2023-01-26T02:09:13;101365.38;;;-0.45;100.00
51452;BME280;37521;52.020;-1.740;2023-01-26T02:11:58;101360.94;;;-0.49;100.00
51452;BME280;37521;52.020;-1.740;2023-01-26T02:14:26;101353.16;;;-0.50;100.00
51452;BME280;37521;52.020;-1.740;2023-01-26T02:16:55;101359.31;;;-0.45;100.00
51452;BME280;37521;52.020;-1.740;2023-01-26T02:19:29;101360.19;;;-0.43;100.00
51452;BME280;37521;52.020;-1.740;2023-01-26T02:22:06;101364.63;;;-0.39;100.00
51452;BME280;37521;52.020;-1.740;2023-01-26T02:24:39;101366.56;;;-0.28;100.00
51452;BME280;37521;52.020;-1.740;2023-01-26T02:27:08;101364.88;;;-0.25;100.00
51452;BME280;37521;52.020;-1.740;2023-01-26T02:29:38;101371.00;;;-0.22;100.00
51452;BME280;37521;52.020;-1.740;2023-01-26T02:32:06;101365.75;;;-0.25;100.00
51452;BME280;37521;52.020;-1.740;2023-01-26T02:34:36;101376.03;;;-0.31;100.00
51452;BME280;37521;52.020;-1.740;2023-01-26T02:37:04;101372.44;;;-0.36;100.00
51452;BME280;37521;52.020;-1.740;2023-01-26T02:39:42;101374.06;;;-0.41;100.00
51452;BME280;37521;52.020;-1.740;2023-01-26T02:42:13;101373.31;;;-0.36;100.00
51452;BME280;37521;52.020;-1.740;2023-01-26T02:44:59;101369.88;;;-0.35;100.00
51452;BME280;37521;52.020;-1.740;2023-01-26T02:47:28;101370.19;;;-0.19;100.00
51452;BME280;37521;52.020;-1.740;2023-01-26T02:49:57;101377.28;;;-0.11;100.00
51452;BME280;37521;52.020;-1.740;2023-01-26T02:52:28;101380.00;;;-0.05;100.00
51452;BME280;37521;52.020;-1.740;2023-01-26T02:55:07;101368.75;;;-0.04;100.00
51452;BME280;37521;52.020;-1.740;2023-01-26T02:57:55;101380.00;;;-0.05;100.00
51452;BME280;37521;52.020;-1.740;2023-01-26T03:00:25;101380.00;;;-0.05;100.00
51452;BME280;37521;52.020;-1.740;2023-01-26T03:02:57;101377.31;;;-0.09;100.00
51452;BME280;37521;52.020;-1.740;2023-01-26T03:05:26;101382.50;;;-0.08;100.00
51452;BME280;37521;52.020;-1.740;2023-01-26T03:07:55;101385.00;;;-0.14;100.00
51452;BME280;37521;52.020;-1.740;2023-01-26T03:10:29;101386.81;;;-0.10;100.00
51452;BME280;37521;52.020;-1.740;2023-01-26T03:12:59;101390.25;;;-0.11;100.00
51452;BME280;37521;52.020;-1.740;2023-01-26T03:15:27;101391.97;;;-0.13;100.00
51452;BME280;37521;52.020;-1.740;2023-01-26T03:18:15;101402.13;;;-0.23;100.00
51452;BME280;37521;52.020;-1.740;2023-01-26T03:21:03;101393.31;;;-0.32;100.00
51452;BME280;37521;52.020;-1.740;2023-01-26T03:23:50;101401.06;;;-0.33;100.00
51452;BME280;37521;52.020;-1.740;2023-01-26T03:26:36;101400.97;;;-0.38;100.00
51452;BME280;37521;52.020;-1.740;2023-01-26T03:29:25;101408.66;;;-0.42;100.00
51452;BME280;37521;52.020;-1.740;2023-01-26T03:31:57;101406.84;;;-0.46;100.00
51452;BME280;37521;52.020;-1.740;2023-01-26T03:34:26;101400.75;;;-0.47;100.00
51452;BME280;37521;52.020;-1.740;2023-01-26T03:36:56;101400.69;;;-0.51;100.00
51452;BME280;37521;52.020;-1.740;2023-01-26T03:39:29;101398.84;;;-0.57;100.00
51452;BME280;37521;52.020;-1.740;2023-01-26T03:42:16;101390.22;;;-0.55;100.00
51452;BME280;37521;52.020;-1.740;2023-01-26T03:45:04;101392.81;;;-0.55;100.00
51452;BME280;37521;52.020;-1.740;2023-01-26T03:47:50;101404.13;;;-0.52;100.00
51452;BME280;37521;52.020;-1.740;2023-01-26T03:50:36;101405.88;;;-0.51;100.00
51452;BME280;37521;52.020;-1.740;2023-01-26T03:53:23;101403.06;;;-0.61;100.00
51452;BME280;37521;52.020;-1.740;2023-01-26T03:56:10;101404.63;;;-0.69;100.00
51452;BME280;37521;52.020;-1.740;2023-01-26T03:58:52;101399.31;;;-0.75;100.00
51452;BME280;37521;52.020;-1.740;2023-01-26T04:01:25;101396.50;;;-0.86;100.00
51452;BME280;37521;52.020;-1.740;2023-01-26T04:03:57;101392.19;;;-0.85;100.00
51452;BME280;37521;52.020;-1.740;2023-01-26T04:06:46;101409.34;;;-0.90;100.00
51452;BME280;37521;52.020;-1.740;2023-01-26T04:09:35;101410.81;;;-1.01;100.00
51452;BME280;37521;52.020;-1.740;2023-01-26T04:12:05;101415.94;;;-1.04;100.00
51452;BME280;37521;52.020;-1.740;2023-01-26T04:14:47;101410.66;;;-1.07;100.00
51452;BME280;37521;52.020;-1.740;2023-01-26T04:17:34;101404.59;;;-1.08;100.00
51452;BME280;37521;52.020;-1.740;2023-01-26T04:20:20;101403.56;;;-1.16;100.00
51452;BME280;37521;52.020;-1.740;2023-01-26T04:23:06;101403.38;;;-1.24;100.00
51452;BME280;37521;52.020;-1.740;2023-01-26T04:25:34;101414.59;;;-1.25;100.00
51452;BME280;37521;52.020;-1.740;2023-01-26T04:28:03;101411.28;;;-1.19;100.00
51452;BME280;37521;52.020;-1.740;2023-01-26T04:30:32;101406.22;;;-1.13;100.00
51452;BME280;37521;52.020;-1.740;2023-01-26T04:33:02;101415.81;;;-1.09;100.00
51452;BME280;37521;52.020;-1.740;2023-01-26T04:35:31;101409.19;;;-0.96;100.00
51452;BME280;37521;52.020;-1.740;2023-01-26T04:38:00;101415.38;;;-0.91;100.00
51452;BME280;37521;52.020;-1.740;2023-01-26T04:40:29;101416.06;;;-0.98;100.00
51452;BME280;37521;52.020;-1.740;2023-01-26T04:42:57;101428.06;;;-1.02;100.00
51452;BME280;37521;52.020;-1.740;2023-01-26T04:45:25;101420.31;;;-1.02;100.00
51452;BME280;37521;52.020;-1.740;2023-01-26T04:47:54;101420.28;;;-1.03;100.00
51452;BME280;37521;52.020;-1.740;2023-01-26T04:50:23;101425.50;;;-1.00;100.00
51452;BME280;37521;52.020;-1.740;2023-01-26T04:52:52;101425.59;;;-0.97;100.00
51452;BME280;37521;52.020;-1.740;2023-01-26T04:55:20;101423.75;;;-1.01;100.00
51452;BME280;37521;52.020;-1.740;2023-01-26T04:57:48;101418.50;;;-1.06;100.00
51452;BME280;37521;52.020;-1.740;2023-01-26T05:00:16;101426.00;;;-1.17;100.00
51452;BME280;37521;52.020;-1.740;2023-01-26T05:02:45;101425.06;;;-1.20;100.00
51452;BME280;37521;52.020;-1.740;2023-01-26T05:05:14;101432.72;;;-1.25;100.00
51452;BME280;37521;52.020;-1.740;2023-01-26T05:07:43;101432.63;;;-1.28;100.00
51452;BME280;37521;52.020;-1.740;2023-01-26T05:10:13;101421.38;;;-1.30;100.00
51452;BME280;37521;52.020;-1.740;2023-01-26T05:13:01;101415.56;;;-1.20;100.00
51452;BME280;37521;52.020;-1.740;2023-01-26T05:15:40;101426.09;;;-1.14;100.00
51452;BME280;37521;52.020;-1.740;2023-01-26T05:18:29;101414.88;;;-1.13;100.00
51452;BME280;37521;52.020;-1.740;2023-01-26T05:21:13;101416.00;;;-1.01;100.00
51452;BME280;37521;52.020;-1.740;2023-01-26T05:23:47;101416.31;;;-0.88;100.00
51452;BME280;37521;52.020;-1.740;2023-01-26T05:26:26;101427.75;;;-0.79;100.00
51452;BME280;37521;52.020;-1.740;2023-01-26T05:28:59;101427.91;;;-0.72;100.00
51452;BME280;37521;52.020;-1.740;2023-01-26T05:31:28;101429.81;;;-0.63;100.00
51452;BME280;37521;52.020;-1.740;2023-01-26T05:33:57;101423.81;;;-0.61;100.00
51452;BME280;37521;52.020;-1.740;2023-01-26T05:36:25;101436.09;;;-0.53;100.00
51452;BME280;37521;52.020;-1.740;2023-01-26T05:38:55;101432.72;;;-0.49;100.00
51452;BME280;37521;52.020;-1.740;2023-01-26T05:41:25;101425.78;;;-0.50;100.00
51452;BME280;37521;52.020;-1.740;2023-01-26T05:44:11;101425.91;;;-0.44;100.00
51452;BME280;37521;52.020;-1.740;2023-01-26T05:46:44;101433.81;;;-0.40;100.00
51452;BME280;37521;52.020;-1.740;2023-01-26T05:49:12;101433.84;;;-0.37;100.00
51452;BME280;37521;52.020;-1.740;2023-01-26T05:51:41;101439.91;;;-0.36;100.00
51452;BME280;37521;52.020;-1.740;2023-01-26T05:54:10;101443.38;;;-0.37;100.00
51452;BME280;37521;52.020;-1.740;2023-01-26T05:56:39;101444.25;;;-0.37;100.00
51452;BME280;37521;52.020;-1.740;2023-01-26T05:59:07;101443.50;;;-0.31;100.00
51452;BME280;37521;52.020;-1.740;2023-01-26T06:01:35;101451.41;;;-0.25;100.00
51452;BME280;37521;52.020;-1.740;2023-01-26T06:04:06;101451.44;;;-0.23;100.00
51452;BME280;37521;52.020;-1.740;2023-01-26T06:06:41;101452.31;;;-0.23;100.00
51452;BME280;37521;52.020;-1.740;2023-01-26T06:09:31;101457.59;;;-0.20;100.00
51452;BME280;37521;52.020;-1.740;2023-01-26T06:12:11;101461.00;;;-0.21;100.00
51452;BME280;37521;52.020;-1.740;2023-01-26T06:15:01;101464.44;;;-0.22;100.00
51452;BME280;37521;52.020;-1.740;2023-01-26T06:17:36;101470.44;;;-0.24;100.00
51452;BME280;37521;52.020;-1.740;2023-01-26T06:20:07;101486.91;;;-0.24;100.00
51452;BME280;37521;52.020;-1.740;2023-01-26T06:22:38;101481.72;;;-0.24;100.00
51452;BME280;37521;52.020;-1.740;2023-01-26T06:25:08;101483.44;;;-0.24;100.00
51452;BME280;37521;52.020;-1.740;2023-01-26T06:27:36;101475.66;;;-0.24;100.00
51452;BME280;37521;52.020;-1.740;2023-01-26T06:30:17;101478.13;;;-0.29;100.00
51452;BME280;37521;52.020;-1.740;2023-01-26T06:32:46;101485.06;;;-0.28;100.00
51452;BME280;37521;52.020;-1.740;2023-01-26T06:35:16;101488.59;;;-0.26;100.00
51452;BME280;37521;52.020;-1.740;2023-01-26T06:37:47;101487.78;;;-0.23;100.00
51452;BME280;37521;52.020;-1.740;2023-01-26T06:40:17;101489.53;;;-0.22;100.00
51452;BME280;37521;52.020;-1.740;2023-01-26T06:42:47;101493.13;;;-0.16;100.00
51452;BME280;37521;52.020;-1.740;2023-01-26T06:45:17;101497.47;;;-0.15;100.00
51452;BME280;37521;52.020;-1.740;2023-01-26T06:47:49;101489.72;;;-0.13;100.00
51452;BME280;37521;52.020;-1.740;2023-01-26T06:50:19;101494.09;;;-0.11;100.00
51452;BME280;37521;52.020;-1.740;2023-01-26T06:52:51;101492.41;;;-0.09;100.00
51452;BME280;37521;52.020;-1.740;2023-01-26T06:55:41;101483.72;;;-0.11;100.00
51452;BME280;37521;52.020;-1.740;2023-01-26T06:58:28;101488.97;;;-0.08;100.00
51452;BME280;37521;52.020;-1.740;2023-01-26T07:01:16;101485.56;;;-0.05;100.00
51452;BME280;37521;52.020;-1.740;2023-01-26T07:03:46;101497.72;;;-0.03;100.00
51452;BME280;37521;52.020;-1.740;2023-01-26T07:06:15;101486.44;;;-0.05;100.00
51452;BME280;37521;52.020;-1.740;2023-01-26T07:08:43;101490.78;;;-0.04;100.00
51452;BME280;37521;52.020;-1.740;2023-01-26T07:11:13;101493.38;;;-0.04;100.00
51452;BME280;37521;52.020;-1.740;2023-01-26T07:13:42;101493.50;;;0.03;100.00
51452;BME280;37521;52.020;-1.740;2023-01-26T07:16:12;101494.50;;;0.08;100.00
51452;BME280;37521;52.020;-1.740;2023-01-26T07:18:41;101505.66;;;0.05;100.00
51452;BME280;37521;52.020;-1.740;2023-01-26T07:21:11;101513.38;;;0.01;100.00
51452;BME280;37521;52.020;-1.740;2023-01-26T07:23:39;101513.31;;;-0.03;100.00
51452;BME280;37521;52.020;-1.740;2023-01-26T07:26:08;101506.41;;;-0.01;100.00
51452;BME280;37521;52.020;-1.740;2023-01-26T07:28:38;101518.59;;;0.02;100.00
51452;BME280;37521;52.020;-1.740;2023-01-26T07:31:07;101513.41;;;0.02;100.00
51452;BME280;37521;52.020;-1.740;2023-01-26T07:33:35;101527.31;;;0.06;100.00
51452;BME280;37521;52.020;-1.740;2023-01-26T07:36:04;101534.34;;;0.10;100.00
51452;BME280;37521;52.020;-1.740;2023-01-26T07:38:33;101523.97;;;0.11;100.00
51452;BME280;37521;52.020;-1.740;2023-01-26T07:41:05;101517.06;;;0.12;100.00
51452;BME280;37521;52.020;-1.740;2023-01-26T07:43:35;101517.88;;;0.08;100.00
51452;BME280;37521;52.020;-1.740;2023-01-26T07:46:08;101512.66;;;0.08;100.00
51452;BME280;37521;52.020;-1.740;2023-01-26T07:48:37;101506.53;;;0.06;100.00
51452;BME280;37521;52.020;-1.740;2023-01-26T07:51:07;101512.56;;;0.03;100.00
51452;BME280;37521;52.020;-1.740;2023-01-26T07:53:37;101508.28;;;0.07;100.00
51452;BME280;37521;52.020;-1.740;2023-01-26T07:56:09;101506.63;;;0.09;100.00
51452;BME280;37521;52.020;-1.740;2023-01-26T07:58:38;101516.09;;;0.07;100.00
51452;BME280;37521;52.020;-1.740;2023-01-26T08:01:10;101517.75;;;0.03;100.00
51452;BME280;37521;52.020;-1.740;2023-01-26T08:03:38;101516.72;;;-0.05;100.00
51452;BME280;37521;52.020;-1.740;2023-01-26T08:06:08;101514.00;;;-0.11;100.00
51452;BME280;37521;52.020;-1.740;2023-01-26T08:08:39;101523.38;;;-0.18;100.00
51452;BME280;37521;52.020;-1.740;2023-01-26T08:11:08;101531.13;;;-0.19;100.00
51452;BME280;37521;52.020;-1.740;2023-01-26T08:13:37;101525.97;;;-0.18;100.00
51452;BME280;37521;52.020;-1.740;2023-01-26T08:16:07;101528.53;;;-0.19;100.00
51452;BME280;37521;52.020;-1.740;2023-01-26T08:18:40;101526.59;;;-0.28;100.00
51452;BME280;37521;52.020;-1.740;2023-01-26T08:21:09;101534.03;;;-0.43;100.00
51452;BME280;37521;52.020;-1.740;2023-01-26T08:23:39;101537.19;;;-0.57;100.00
51452;BME280;37521;52.020;-1.740;2023-01-26T08:26:09;101539.75;;;-0.60;100.00
51452;BME280;37521;52.020;-1.740;2023-01-26T08:28:39;101544.94;;;-0.60;100.00
51452;BME280;37521;52.020;-1.740;2023-01-26T08:31:09;101532.00;;;-0.57;100.00
51452;BME280;37521;52.020;-1.740;2023-01-26T08:33:41;101539.09;;;-0.49;100.00
51452;BME280;37521;52.020;-1.740;2023-01-26T08:36:11;101532.28;;;-0.44;100.00
51452;BME280;37521;52.020;-1.740;2023-01-26T08:38:40;101546.25;;;-0.39;100.00
51452;BME280;37521;52.020;-1.740;2023-01-26T08:41:09;101552.50;;;-0.31;100.00
51452;BME280;37521;52.020;-1.740;2023-01-26T08:43:38;101563.09;;;-0.20;100.00
51452;BME280;37521;52.020;-1.740;2023-01-26T08:46:08;101568.63;;;-0.07;100.00
51452;BME280;37521;52.020;-1.740;2023-01-26T08:48:36;101567.13;;;0.05;100.00
51452;BME280;37521;52.020;-1.740;2023-01-26T08:51:07;101556.88;;;0.11;100.00
51452;BME280;37521;52.020;-1.740;2023-01-26T08:53:36;101567.34;;;0.14;100.00
51452;BME280;37521;52.020;-1.740;2023-01-26T08:56:07;101576.03;;;0.16;100.00
51452;BME280;37521;52.020;-1.740;2023-01-26T08:58:36;101570.88;;;0.19;100.00
51452;BME280;37521;52.020;-1.740;2023-01-26T09:01:05;101577.00;;;0.21;100.00
51452;BME280;37521;52.020;-1.740;2023-01-26T09:03:34;101576.16;;;0.22;100.00
51452;BME280;37521;52.020;-1.740;2023-01-26T09:06:06;101574.41;;;0.21;100.00
51452;BME280;37521;52.020;-1.740;2023-01-26T09:08:35;101579.59;;;0.21;100.00
51452;BME280;37521;52.020;-1.740;2023-01-26T09:11:04;101570.09;;;0.23;100.00
51452;BME280;37521;52.020;-1.740;2023-01-26T09:13:33;101571.03;;;0.26;100.00
51452;BME280;37521;52.020;-1.740;2023-01-26T09:16:03;101571.13;;;0.31;100.00
51452;BME280;37521;52.020;-1.740;2023-01-26T09:18:32;101574.72;;;0.36;100.00
51452;BME280;37521;52.020;-1.740;2023-01-26T09:21:02;101570.44;;;0.40;100.00
51452;BME280;37521;52.020;-1.740;2023-01-26T09:23:33;101574.88;;;0.45;100.00
51452;BME280;37521;52.020;-1.740;2023-01-26T09:26:02;101569.81;;;0.51;100.00
51452;BME280;37521;52.020;-1.740;2023-01-26T09:28:30;101568.19;;;0.57;100.00
51452;BME280;37521;52.020;-1.740;2023-01-26T09:31:02;101568.22;;;0.58;100.00
51452;BME280;37521;52.020;-1.740;2023-01-26T09:33:31;101566.47;;;0.59;100.00
51452;BME280;37521;52.020;-1.740;2023-01-26T09:36:02;101565.63;;;0.60;100.00
51452;BME280;37521;52.020;-1.740;2023-01-26T09:38:33;101570.06;;;0.64;100.00
51452;BME280;37521;52.020;-1.740;2023-01-26T09:41:05;101569.31;;;0.69;100.00
51452;BME280;37521;52.020;-1.740;2023-01-26T09:43:37;101576.38;;;0.76;100.00
51452;BME280;37521;52.020;-1.740;2023-01-26T09:46:18;101574.75;;;0.83;100.00
51452;BME280;37521;52.020;-1.740;2023-01-26T09:48:56;101576.63;;;0.90;100.00
51452;BME280;37521;52.020;-1.740;2023-01-26T09:51:32;101568.91;;;0.95;100.00
51452;BME280;37521;52.020;-1.740;2023-01-26T09:54:08;101579.44;;;1.02;100.00
51452;BME280;37521;52.020;-1.740;2023-01-26T09:56:42;101574.34;;;1.08;100.00
51452;BME280;37521;52.020;-1.740;2023-01-26T09:59:20;101577.88;;;1.14;100.00
51452;BME280;37521;52.020;-1.740;2023-01-26T10:01:56;101577.06;;;1.15;100.00
51452;BME280;37521;52.020;-1.740;2023-01-26T10:04:30;101576.25;;;1.19;100.00
51452;BME280;37521;52.020;-1.740;2023-01-26T10:07:08;101584.97;;;1.21;100.00
51452;BME280;37521;52.020;-1.740;2023-01-26T10:09:57;101577.19;;;1.22;100.00
51452;BME280;37521;52.020;-1.740;2023-01-26T10:12:27;101586.75;;;1.25;100.00
51452;BME280;37521;52.020;-1.740;2023-01-26T10:15:00;101572.03;;;1.27;100.00
51452;BME280;37521;52.020;-1.740;2023-01-26T10:17:32;101577.31;;;1.30;100.00
51452;BME280;37521;52.020;-1.740;2023-01-26T10:20:05;101588.63;;;1.33;100.00
51452;BME280;37521;52.020;-1.740;2023-01-26T10:22:41;101587.81;;;1.36;100.00
51452;BME280;37521;52.020;-1.740;2023-01-26T10:25:16;101590.53;;;1.42;100.00
51452;BME280;37521;52.020;-1.740;2023-01-26T10:27:44;101587.97;;;1.45;100.00
51452;BME280;37521;52.020;-1.740;2023-01-26T10:30:13;101587.19;;;1.49;100.00
51452;BME280;37521;52.020;-1.740;2023-01-26T10:32:43;101588.91;;;1.50;100.00
51452;BME280;37521;52.020;-1.740;2023-01-26T10:35:16;101596.75;;;1.53;100.00
51452;BME280;37521;52.020;-1.740;2023-01-26T10:37:48;101589.81;;;1.52;100.00
51452;BME280;37521;52.020;-1.740;2023-01-26T10:40:20;101597.69;;;1.55;100.00
51452;BME280;37521;52.020;-1.740;2023-01-26T10:42:54;101594.31;;;1.62;100.00
51452;BME280;37521;52.020;-1.740;2023-01-26T10:45:27;101599.66;;;1.72;100.00
51452;BME280;37521;52.020;-1.740;2023-01-26T10:48:08;101596.25;;;1.76;100.00
51452;BME280;37521;52.020;-1.740;2023-01-26T10:50:41;101589.41;;;1.81;100.00
51452;BME280;37521;52.020;-1.740;2023-01-26T10:53:14;101586.81;;;1.82;100.00
51452;BME280;37521;52.020;-1.740;2023-01-26T10:55:58;101593.75;;;1.82;100.00
51452;BME280;37521;52.020;-1.740;2023-01-26T10:58:46;101599.81;;;1.81;100.00
51452;BME280;37521;52.020;-1.740;2023-01-26T11:01:17;101594.66;;;1.84;100.00
51452;BME280;37521;52.020;-1.740;2023-01-26T11:04:00;101595.59;;;1.89;100.00
51452;BME280;37521;52.020;-1.740;2023-01-26T11:06:30;101596.47;;;1.91;100.00
51452;BME280;37521;52.020;-1.740;2023-01-26T11:09:17;101599.88;;;1.87;100.00
51452;BME280;37521;52.020;-1.740;2023-01-26T11:12:08;101612.00;;;1.83;100.00
51452;BME280;37521;52.020;-1.740;2023-01-26T11:14:58;101608.47;;;1.80;100.00
51452;BME280;37521;52.020;-1.740;2023-01-26T11:17:31;101606.72;;;1.79;100.00
51452;BME280;37521;52.020;-1.740;2023-01-26T11:20:09;101600.94;;;2.00;100.00
51452;BME280;37521;52.020;-1.740;2023-01-26T11:22:47;101603.09;;;2.30;100.00
51452;BME280;37521;52.020;-1.740;2023-01-26T11:25:24;101604.31;;;2.56;100.00
51452;BME280;37521;52.020;-1.740;2023-01-26T11:28:10;101600.91;;;2.65;100.00
51452;BME280;37521;52.020;-1.740;2023-01-26T11:30:53;101599.97;;;2.60;100.00
51452;BME280;37521;52.020;-1.740;2023-01-26T11:33:28;101588.59;;;2.53;100.00
51452;BME280;37521;52.020;-1.740;2023-01-26T11:36:04;101594.66;;;2.49;100.00
51452;BME280;37521;52.020;-1.740;2023-01-26T11:38:39;101581.66;;;2.52;100.00
51452;BME280;37521;52.020;-1.740;2023-01-26T11:41:23;101566.06;;;2.58;100.00
51452;BME280;37521;52.020;-1.740;2023-01-26T11:44:16;101566.16;;;2.67;100.00
51452;BME280;37521;52.020;-1.740;2023-01-26T11:46:57;101564.53;;;2.76;100.00
51452;BME280;37521;52.020;-1.740;2023-01-26T11:49:42;101570.78;;;2.91;100.00
51452;BME280;37521;52.020;-1.740;2023-01-26T11:52:21;101557.91;;;3.08;100.00
51452;BME280;37521;52.020;-1.740;2023-01-26T11:55:06;101565.88;;;3.23;100.00
51452;BME280;37521;52.020;-1.740;2023-01-26T11:57:49;101570.38;;;3.43;100.00
51452;BME280;37521;52.020;-1.740;2023-01-26T12:00:24;101562.75;;;3.73;100.00
51452;BME280;37521;52.020;-1.740;2023-01-26T12:03:00;101568.16;;;4.04;100.00
51452;BME280;37521;52.020;-1.740;2023-01-26T12:05:39;101582.16;;;4.10;100.00
51452;BME280;37521;52.020;-1.740;2023-01-26T12:08:14;101577.75;;;4.06;100.00
51452;BME280;37521;52.020;-1.740;2023-01-26T12:10:48;101573.44;;;4.10;100.00
51452;BME280;37521;52.020;-1.740;2023-01-26T12:13:23;101577.69;;;3.93;100.00
51452;BME280;37521;52.020;-1.740;2023-01-26T12:15:58;101573.25;;;3.81;100.00
51452;BME280;37521;52.020;-1.740;2023-01-26T12:18:32;101567.13;;;3.77;100.00
51452;BME280;37521;52.020;-1.740;2023-01-26T12:21:21;101568.88;;;3.75;100.00
51452;BME280;37521;52.020;-1.740;2023-01-26T12:23:55;101570.59;;;3.73;100.00
51452;BME280;37521;52.020;-1.740;2023-01-26T12:26:30;101563.63;;;3.71;100.00
51452;BME280;37521;52.020;-1.740;2023-01-26T12:29:04;101572.28;;;3.65;100.00
51452;BME280;37521;52.020;-1.740;2023-01-26T12:31:40;101568.78;;;3.66;100.00
51452;BME280;37521;52.020;-1.740;2023-01-26T12:34:12;101561.00;;;3.71;100.00
51452;BME280;37521;52.020;-1.740;2023-01-26T12:36:46;101560.16;;;3.78;100.00
51452;BME280;37521;52.020;-1.740;2023-01-26T12:39:23;101555.00;;;3.82;100.00
51452;BME280;37521;52.020;-1.740;2023-01-26T12:42:13;101553.25;;;3.81;100.00
51452;BME280;37521;52.020;-1.740;2023-01-26T12:44:46;101556.69;;;3.77;100.00
51452;BME280;37521;52.020;-1.740;2023-01-26T12:47:23;101563.63;;;3.72;100.00
51452;BME280;37521;52.020;-1.740;2023-01-26T12:49:57;101554.88;;;3.66;100.00
51452;BME280;37521;52.020;-1.740;2023-01-26T12:52:32;101555.72;;;3.65;100.00
51452;BME280;37521;52.020;-1.740;2023-01-26T12:55:09;101551.41;;;3.68;100.00
51452;BME280;37521;52.020;-1.740;2023-01-26T12:57:50;101554.03;;;3.73;100.00
51452;BME280;37521;52.020;-1.740;2023-01-26T13:00:23;101553.25;;;3.81;100.00
51452;BME280;37521;52.020;-1.740;2023-01-26T13:02:57;101555.03;;;3.92;100.00
51452;BME280;37521;52.020;-1.740;2023-01-26T13:05:27;101552.50;;;4.02;100.00
51452;BME280;37521;52.020;-1.740;2023-01-26T13:07:56;101546.44;;;4.20;100.00